Time;durP1;ratioP1;P1;durP2;ratioP2;P2;SDS_P1;SDS_P2;PMS_P1;PMS_P2;Temp;Humidity;BMP_temperature;BMP_pressure;BME280_temperature;BME280_humidity;BME280_pressure;Samples;Min_cycle;Max_cycle;Signal;HPM_P1;HPM_P2
2023/03/18 00:00:08;;;;;;;8.93;6.13;;;12.60;99.90;;;;;;5112531;28;20047;-49
2023/03/18 00:02:35;;;;;;;10.27;7.00;;;12.60;99.90;;;;;;5113749;28;20377;-48
2023/03/18 00:05:01;;;;;;;9.70;6.68;;;12.60;99.90;;;;;;5113454;28;20030;-38
2023/03/18 00:07:27;;;;;;;17.60;6.95;;;12.60;99.90;;;;;;5101152;28;20032;-46
2023/03/18 00:09:52;;;;;;;13.73;7.18;;;12.50;99.90;;;;;;5092853;28;20032;-42
2023/03/18 00:12:18;;;;;;;12.60;5.95;;;12.50;99.90;;;;;;5092980;28;20554;-33
2023/03/18 00:14:44;;;;;;;9.55;6.82;;;12.50;99.90;;;;;;5093938;28;20088;-33
2023/03/18 00:17:09;;;;;;;11.48;6.68;;;12.50;99.90;;;;;;5092689;28;20024;-37
2023/03/18 00:19:35;;;;;;;10.27;6.32;;;12.50;99.90;;;;;;5092889;28;20035;-31
2023/03/18 00:22:01;;;;;;;14.85;6.53;;;12.50;99.90;;;;;;5090615;28;20025;-35
2023/03/18 00:24:27;;;;;;;9.80;6.13;;;12.50;99.90;;;;;;5093428;28;20020;-36
2023/03/18 00:26:53;;;;;;;14.70;6.78;;;12.40;99.90;;;;;;5108999;28;20020;-36
2023/03/18 00:29:18;;;;;;;13.55;7.50;;;12.40;99.90;;;;;;5099423;28;20085;-37
2023/03/18 00:31:45;;;;;;;14.65;6.72;;;12.40;99.90;;;;;;5092800;28;20396;-31
2023/03/18 00:34:10;;;;;;;13.02;7.30;;;12.40;99.90;;;;;;5093381;28;20020;-32
2023/03/18 00:36:37;;;;;;;11.98;7.40;;;12.30;99.90;;;;;;5092808;28;20030;-32
2023/03/18 00:39:03;;;;;;;15.38;7.50;;;12.40;99.90;;;;;;5092651;28;20024;-35
2023/03/18 00:41:32;;;;;;;17.88;8.20;;;12.20;99.90;;;;;;5096050;28;20119;-32
2023/03/18 00:43:57;;;;;;;12.65;7.35;;;12.20;99.90;;;;;;5113369;28;20421;-30
2023/03/18 00:46:24;;;;;;;12.05;7.50;;;12.20;99.90;;;;;;5121411;28;20106;-31
2023/03/18 00:48:52;;;;;;;13.02;6.85;;;12.20;99.90;;;;;;5112966;28;20057;-34
2023/03/18 00:51:19;;;;;;;18.25;7.28;;;12.20;99.90;;;;;;5111989;28;20080;-32
2023/03/18 00:53:48;;;;;;;10.20;6.87;;;12.20;99.90;;;;;;5113254;28;20107;-31
2023/03/18 00:56:15;;;;;;;15.82;7.43;;;12.20;99.90;;;;;;5112957;28;20261;-36
2023/03/18 00:58:41;;;;;;;7.70;4.80;;;12.30;99.90;;;;;;5106498;28;20031;-30
2023/03/18 01:01:07;;;;;;;12.23;7.10;;;12.30;99.90;;;;;;5103764;28;20020;-35
2023/03/18 01:03:34;;;;;;;12.68;6.90;;;12.40;99.90;;;;;;5092594;28;20103;-35
2023/03/18 01:06:01;;;;;;;11.60;6.95;;;12.40;99.90;;;;;;5103651;28;20020;-39
2023/03/18 01:08:29;;;;;;;12.70;7.20;;;12.40;99.90;;;;;;5094532;28;20421;-31
2023/03/18 01:10:55;;;;;;;10.65;6.60;;;12.40;99.90;;;;;;5103139;28;20026;-33
2023/03/18 01:13:22;;;;;;;17.75;7.93;;;12.40;99.90;;;;;;5102229;28;20027;-31
2023/03/18 01:15:49;;;;;;;14.55;7.30;;;12.40;99.90;;;;;;5095248;28;20027;-35
2023/03/18 01:18:15;;;;;;;13.77;7.53;;;12.40;99.90;;;;;;5108619;28;20038;-36
2023/03/18 01:20:43;;;;;;;14.57;6.60;;;12.40;99.90;;;;;;5101427;28;20028;-34
2023/03/18 01:23:09;;;;;;;;;;;12.40;99.90;;;;;;5101438;27;20111;-36
2023/03/18 01:25:35;;;;;;;13.90;6.63;;;12.40;99.90;;;;;;5107233;28;19907;-31
2023/03/18 01:28:01;;;;;;;17.25;7.90;;;12.40;99.90;;;;;;5102151;28;20494;-33
2023/03/18 01:30:27;;;;;;;13.77;7.78;;;12.30;99.90;;;;;;5109149;28;20472;-49
2023/03/18 01:32:53;;;;;;;13.40;7.05;;;12.40;99.90;;;;;;5108635;28;20035;-48
2023/03/18 01:35:19;;;;;;;13.00;7.20;;;12.40;99.90;;;;;;5112693;27;20028;-49
2023/03/18 01:37:45;;;;;;;14.65;7.93;;;12.40;99.90;;;;;;5095637;28;20035;-48
2023/03/18 01:40:12;;;;;;;17.77;8.43;;;12.40;99.90;;;;;;5095416;28;20036;-48
2023/03/18 01:42:39;;;;;;;13.48;7.75;;;12.40;99.90;;;;;;5109284;28;20030;-49
2023/03/18 01:45:24;;;;;;;14.68;8.05;;;12.40;99.90;;;;;;5110778;28;20085;-48
2023/03/18 01:47:50;;;;;;;13.25;7.10;;;12.40;99.90;;;;;;5094635;28;20527;-48
2023/03/18 01:50:23;;;;;;;15.70;7.57;;;12.40;99.90;;;;;;5095419;28;20032;-49
2023/03/18 01:53:03;;;;;;;14.35;8.15;;;12.40;99.90;;;;;;5101879;28;20031;-48
2023/03/18 01:55:30;;;;;;;17.83;8.57;;;12.30;99.90;;;;;;5115855;28;20039;-49
2023/03/18 01:57:58;;;;;;;17.38;8.88;;;12.30;99.90;;;;;;5105207;28;20052;-49
2023/03/18 02:00:24;;;;;;;24.92;8.55;;;12.40;99.90;;;;;;5112252;28;20027;-48
2023/03/18 02:02:52;;;;;;;23.45;9.95;;;12.30;99.90;;;;;;5115468;28;20479;-48
2023/03/18 02:05:23;;;;;;;15.07;8.68;;;12.30;99.90;;;;;;5102269;28;20051;-41
2023/03/18 02:07:50;;;;;;;13.48;8.40;;;12.30;99.90;;;;;;5112745;28;20060;-42
2023/03/18 02:10:25;;;;;;;12.65;7.85;;;12.30;99.90;;;;;;5097815;28;20028;-40
2023/03/18 02:13:06;;;;;;;14.40;8.73;;;12.30;99.90;;;;;;5104939;28;20107;-40
2023/03/18 02:15:32;;;;;;;16.05;9.27;;;12.30;99.90;;;;;;5095557;28;20487;-39
2023/03/18 02:18:18;;;;;;;17.70;9.15;;;12.30;99.90;;;;;;5094920;28;20484;-40
2023/03/18 02:20:49;;;;;;;14.20;8.63;;;12.20;99.90;;;;;;5115591;28;20484;-38
2023/03/18 02:23:24;;;;;;;17.60;9.40;;;12.20;99.90;;;;;;5110456;28;20028;-39
2023/03/18 02:25:57;;;;;;;14.52;8.75;;;12.20;99.90;;;;;;5096318;28;20039;-40
2023/03/18 02:28:26;;;;;;;21.98;9.80;;;12.20;99.90;;;;;;5094182;28;20082;-38
2023/03/18 02:30:56;;;;;;;15.32;8.77;;;12.20;99.90;;;;;;5094004;28;20390;-40
2023/03/18 02:33:26;;;;;;;14.90;8.50;;;12.20;99.90;;;;;;5099523;28;20043;-40
2023/03/18 02:36:03;;;;;;;21.85;9.20;;;12.20;99.90;;;;;;5106879;28;20072;-40
2023/03/18 02:38:29;;;;;;;19.90;9.77;;;12.30;99.90;;;;;;5114960;28;20115;-40
2023/03/18 02:40:55;;;;;;;16.85;9.10;;;12.20;99.90;;;;;;5114777;28;20123;-42
2023/03/18 02:43:29;;;;;;;20.88;9.38;;;12.20;99.90;;;;;;5100222;28;20042;-41
2023/03/18 02:46:10;;;;;;;19.17;10.00;;;12.20;99.90;;;;;;5106428;28;20024;-41
2023/03/18 02:48:39;;;;;;;18.95;9.40;;;12.30;99.90;;;;;;5094447;28;20098;-45
2023/03/18 02:51:06;;;;;;;27.92;11.35;;;12.30;99.90;;;;;;5095346;28;20081;-40
2023/03/18 02:53:32;;;;;;;16.42;8.98;;;12.30;99.90;;;;;;5094277;28;20058;-40
2023/03/18 02:55:58;;;;;;;18.20;9.95;;;12.30;99.90;;;;;;5093819;28;20059;-39
2023/03/18 02:58:24;;;;;;;22.90;10.20;;;12.30;99.90;;;;;;5096983;28;20023;-39
2023/03/18 03:00:50;;;;;;;19.65;10.05;;;12.30;99.90;;;;;;5112369;28;20073;-42
2023/03/18 03:03:15;;;;;;;20.70;10.70;;;12.30;99.90;;;;;;5110223;28;20538;-41
2023/03/18 03:05:41;;;;;;;19.05;8.80;;;12.30;99.90;;;;;;5106957;28;20114;-41
2023/03/18 03:08:07;;;;;;;16.73;9.88;;;12.30;99.90;;;;;;5105519;28;20024;-41
2023/03/18 03:10:33;;;;;;;16.83;9.95;;;12.30;99.90;;;;;;5109684;28;20027;-40
2023/03/18 03:12:59;;;;;;;16.23;9.63;;;12.30;99.90;;;;;;5101400;28;20035;-40
2023/03/18 03:15:25;;;;;;;19.25;8.93;;;12.30;99.90;;;;;;5095550;28;20106;-40
2023/03/18 03:17:52;;;;;;;22.27;10.00;;;12.30;99.90;;;;;;5094132;28;20028;-39
2023/03/18 03:20:18;;;;;;;16.50;9.90;;;12.30;99.90;;;;;;5092281;28;20031;-39
2023/03/18 03:22:44;;;;;;;17.10;9.43;;;12.30;99.90;;;;;;5095263;28;20028;-41
2023/03/18 03:25:11;;;;;;;17.50;9.85;;;12.30;99.90;;;;;;5094517;28;20387;-39
2023/03/18 03:27:36;;;;;;;17.10;9.65;;;12.30;99.90;;;;;;5111005;28;20433;-40
2023/03/18 03:30:04;;;;;;;20.48;9.13;;;12.30;99.90;;;;;;5111011;28;20036;-43
2023/03/18 03:32:30;;;;;;;16.15;8.80;;;12.30;99.90;;;;;;5113898;28;20028;-45
2023/03/18 03:34:56;;;;;;;17.83;9.27;;;12.40;99.90;;;;;;5113907;28;20061;-39
2023/03/18 03:37:22;;;;;;;17.88;9.40;;;12.30;99.90;;;;;;5113823;28;20031;-39
2023/03/18 03:39:48;;;;;;;16.15;8.23;;;12.30;99.90;;;;;;5106513;28;20083;-39
2023/03/18 03:42:14;;;;;;;20.73;8.55;;;12.30;99.90;;;;;;5102210;28;20110;-40
2023/03/18 03:44:39;;;;;;;20.17;9.82;;;12.40;99.90;;;;;;5112497;28;20015;-41
2023/03/18 03:47:06;;;;;;;21.80;9.45;;;12.40;99.90;;;;;;5113676;28;20020;-39
2023/03/18 03:49:32;;;;;;;20.17;8.27;;;12.40;99.90;;;;;;5104741;28;20031;-39
2023/03/18 03:51:58;;;;;;;21.30;8.38;;;12.40;99.90;;;;;;5093572;28;20024;-40
2023/03/18 03:54:24;;;;;;;15.50;8.50;;;12.40;99.90;;;;;;5099073;28;20036;-39
2023/03/18 03:56:50;;;;;;;17.00;8.65;;;12.50;99.90;;;;;;5113619;28;20081;-39
2023/03/18 03:59:17;;;;;;;15.63;8.45;;;12.40;99.90;;;;;;5110234;28;20071;-39
2023/03/18 04:01:43;;;;;;;20.15;9.43;;;12.50;99.90;;;;;;5113745;28;20436;-41
2023/03/18 04:04:09;;;;;;;12.20;7.65;;;12.50;99.90;;;;;;5113442;28;20027;-40
2023/03/18 04:06:35;;;;;;;15.18;8.13;;;12.50;99.90;;;;;;5110478;28;20023;-40
2023/03/18 04:09:03;;;;;;;18.80;8.95;;;12.40;99.90;;;;;;5112105;28;20020;-40
2023/03/18 04:11:29;;;;;;;14.82;8.02;;;12.40;99.90;;;;;;5103339;28;20555;-39
2023/03/18 04:13:55;;;;;;;13.60;8.32;;;12.40;99.90;;;;;;5096443;28;20028;-39
2023/03/18 04:16:21;;;;;;;19.27;9.20;;;12.40;99.90;;;;;;5100028;28;20024;-39
2023/03/18 04:18:47;;;;;;;14.73;8.02;;;12.40;99.90;;;;;;5101053;28;20103;-42
2023/03/18 04:21:13;;;;;;;17.38;9.60;;;12.40;99.90;;;;;;5110320;28;20106;-43
2023/03/18 04:23:39;;;;;;;20.27;9.82;;;12.30;99.90;;;;;;5099117;28;20031;-39
2023/03/18 04:26:05;;;;;;;25.15;9.05;;;12.40;99.90;;;;;;5113528;28;20341;-41
2023/03/18 04:28:31;;;;;;;17.55;9.10;;;12.30;99.90;;;;;;5105387;28;20032;-40
2023/03/18 04:30:57;;;;;;;18.08;9.02;;;12.30;99.90;;;;;;5101614;28;20430;-42
2023/03/18 04:33:23;;;;;;;23.45;9.18;;;12.20;99.90;;;;;;5092380;28;20039;-40
2023/03/18 04:35:49;;;;;;;14.55;8.43;;;12.10;99.90;;;;;;5092825;28;20032;-40
2023/03/18 04:38:14;;;;;;;20.67;9.20;;;12.10;99.90;;;;;;5110712;28;20479;-39
2023/03/18 04:40:41;;;;;;;16.33;9.23;;;12.00;99.90;;;;;;5111963;28;20051;-39
2023/03/18 04:43:08;;;;;;;17.17;9.25;;;11.90;99.90;;;;;;5095328;28;20020;-40
2023/03/18 04:45:34;;;;;;;19.70;8.67;;;11.90;99.90;;;;;;5090990;28;20039;-40
2023/03/18 04:48:00;;;;;;;16.75;9.30;;;11.90;99.90;;;;;;5093193;28;20036;-39
2023/03/18 04:50:27;;;;;;;20.85;9.00;;;11.90;99.90;;;;;;5094067;28;20073;-39
2023/03/18 04:52:53;;;;;;;15.60;9.00;;;11.80;99.90;;;;;;5094359;28;20020;-40
2023/03/18 04:55:20;;;;;;;20.67;9.30;;;11.80;99.90;;;;;;5113777;28;20368;-41
2023/03/18 04:57:47;;;;;;;16.95;8.70;;;11.80;99.90;;;;;;5096509;28;20024;-41
2023/03/18 05:00:16;;;;;;;14.00;8.77;;;11.80;99.90;;;;;;5106431;28;20074;-41
2023/03/18 05:02:42;;;;;;;19.25;9.73;;;11.80;99.90;;;;;;5096549;28;20484;-42
2023/03/18 05:05:10;;;;;;;26.15;10.00;;;11.80;99.90;;;;;;5096977;28;20026;-40
2023/03/18 05:07:36;;;;;;;13.02;8.70;;;11.80;99.90;;;;;;5096499;28;20059;-42
2023/03/18 05:10:06;;;;;;;18.33;9.57;;;11.80;99.90;;;;;;5096355;28;20060;-40
2023/03/18 05:12:33;;;;;;;16.75;9.50;;;11.80;99.90;;;;;;5100887;28;20161;-40
2023/03/18 05:14:59;;;;;;;16.95;8.40;;;11.80;99.90;;;;;;5115271;28;20556;-41
2023/03/18 05:17:25;;;;;;;20.83;8.93;;;11.80;99.90;;;;;;5112463;28;20027;-42
2023/03/18 05:19:51;;;;;;;20.30;8.57;;;11.90;99.90;;;;;;5096220;28;20043;-42
2023/03/18 05:22:18;;;;;;;24.98;9.48;;;11.90;99.90;;;;;;5099608;28;20020;-39
2023/03/18 05:24:45;;;;;;;12.95;7.47;;;11.80;99.90;;;;;;5115246;28;20052;-41
2023/03/18 05:27:12;;;;;;;21.15;9.43;;;11.80;99.90;;;;;;5104184;28;20025;-42
2023/03/18 05:29:39;;;;;;;20.42;9.18;;;11.80;99.90;;;;;;5110616;28;20027;-42
2023/03/18 05:32:08;;;;;;;16.65;9.25;;;11.80;99.90;;;;;;5105241;28;20023;-38
2023/03/18 05:34:38;;;;;;;24.65;9.70;;;11.80;99.90;;;;;;5104799;28;20032;-39
2023/03/18 05:37:05;;;;;;;20.15;9.20;;;11.80;99.90;;;;;;5104446;28;20028;-40
2023/03/18 05:39:32;;;;;;;18.90;9.80;;;11.80;99.90;;;;;;5107094;28;20027;-40
2023/03/18 05:41:58;;;;;;;13.15;8.95;;;11.80;99.90;;;;;;5107094;28;20024;-40
2023/03/18 05:44:24;;;;;;;15.13;9.23;;;11.80;99.90;;;;;;5105397;28;20116;-42
2023/03/18 05:46:51;;;;;;;17.00;10.23;;;11.80;99.90;;;;;;5113675;28;20062;-43
2023/03/18 05:49:22;;;;;;;17.85;9.93;;;11.70;99.90;;;;;;5099576;28;20048;-44
2023/03/18 05:51:48;;;;;;;17.67;9.20;;;11.70;99.90;;;;;;5111284;28;20042;-35
2023/03/18 05:54:15;;;;;;;16.80;9.30;;;11.70;99.90;;;;;;5100069;28;20066;-41
2023/03/18 05:56:42;;;;;;;14.75;8.73;;;11.70;99.90;;;;;;5110262;28;20039;-41
2023/03/18 05:59:08;;;;;;;18.53;9.63;;;11.70;99.90;;;;;;5102851;28;20027;-40
2023/03/18 06:01:35;;;;;;;16.55;8.38;;;11.70;99.90;;;;;;5096957;28;20488;-41
2023/03/18 06:04:01;;;;;;;23.60;9.77;;;11.70;99.90;;;;;;5108496;28;20027;-41
2023/03/18 06:06:27;;;;;;;17.77;9.10;;;11.70;99.90;;;;;;5114429;28;20428;-42
2023/03/18 06:08:55;;;;;;;22.40;10.73;;;11.70;99.90;;;;;;5112232;28;20073;-40
2023/03/18 06:11:21;;;;;;;14.68;7.68;;;11.70;99.90;;;;;;5105798;28;20425;-41
2023/03/18 06:13:48;;;;;;;17.52;10.35;;;11.70;99.90;;;;;;5094931;28;20056;-39
2023/03/18 06:16:14;;;;;;;15.23;7.10;;;11.70;99.90;;;;;;5098768;28;20475;-40
2023/03/18 06:18:40;;;;;;;18.55;9.85;;;11.70;99.90;;;;;;5115311;28;20024;-41
2023/03/18 06:21:08;;;;;;;15.85;8.95;;;11.70;99.90;;;;;;5096923;28;20372;-44
2023/03/18 06:23:35;;;;;;;16.48;9.75;;;11.70;99.90;;;;;;5099153;28;20024;-41
2023/03/18 06:26:01;;;;;;;17.02;9.25;;;11.70;99.90;;;;;;5099506;28;20032;-40
2023/03/18 06:28:28;;;;;;;19.70;8.60;;;11.70;99.90;;;;;;5104664;28;20028;-43
2023/03/18 06:30:57;;;;;;;13.60;8.57;;;11.70;99.90;;;;;;5100807;28;20027;-40
2023/03/18 06:33:24;;;;;;;20.90;8.52;;;11.70;99.90;;;;;;5104184;28;20479;-40
2023/03/18 06:35:51;;;;;;;19.98;10.20;;;11.70;99.90;;;;;;5108751;28;20456;-40
2023/03/18 06:38:17;;;;;;;22.42;9.82;;;11.80;99.90;;;;;;5108189;28;20043;-41
2023/03/18 06:40:44;;;;;;;26.40;10.77;;;11.80;99.90;;;;;;5102054;28;20050;-40
2023/03/18 06:43:10;;;;;;;17.73;9.27;;;11.80;99.90;;;;;;5090987;28;20403;-41
2023/03/18 06:45:39;;;;;;;17.38;9.50;;;11.80;99.90;;;;;;5093653;28;20099;-41
2023/03/18 06:48:05;;;;;;;14.20;8.30;;;11.80;99.90;;;;;;5097628;28;20411;-42
2023/03/18 06:50:30;;;;;;;13.32;8.13;;;11.90;99.90;;;;;;5094480;28;20040;-41
2023/03/18 06:52:57;;;;;;;15.93;8.73;;;11.90;99.90;;;;;;5099236;28;20030;-41
2023/03/18 06:55:24;;;;;;;15.73;8.55;;;11.90;99.90;;;;;;5113590;28;20506;-39
2023/03/18 06:57:50;;;;;;;18.83;9.18;;;11.90;99.90;;;;;;5114555;27;20036;-43
2023/03/18 07:00:16;;;;;;;14.00;8.10;;;11.80;99.90;;;;;;5113246;28;20019;-43
2023/03/18 07:02:42;;;;;;;15.85;8.68;;;11.80;99.90;;;;;;5100987;28;20012;-44
2023/03/18 07:05:08;;;;;;;17.33;8.23;;;11.80;99.90;;;;;;5113852;28;20494;-33
2023/03/18 07:07:36;;;;;;;17.00;9.15;;;11.70;99.90;;;;;;5111270;28;20028;-40
2023/03/18 07:10:04;;;;;;;15.13;8.65;;;11.80;99.90;;;;;;5114560;28;20500;-39
2023/03/18 07:12:30;;;;;;;16.35;9.30;;;11.70;99.90;;;;;;5112590;28;20544;-33
2023/03/18 07:14:56;;;;;;;16.13;8.73;;;11.90;99.90;;;;;;5114161;28;20513;-36
2023/03/18 07:17:22;;;;;;;19.35;8.60;;;12.00;99.90;;;;;;5112009;28;20071;-35
2023/03/18 07:19:47;;;;;;;16.45;8.80;;;12.10;99.90;;;;;;5114024;28;20083;-35
2023/03/18 07:22:16;;;;;;;17.10;9.50;;;12.30;99.90;;;;;;5109025;28;20032;-39
2023/03/18 07:24:45;;;;;;;19.85;10.07;;;12.40;99.90;;;;;;5112922;28;20424;-41
2023/03/18 07:27:15;;;;;;;20.50;9.23;;;12.40;99.90;;;;;;5114004;28;20028;-40
2023/03/18 07:29:41;;;;;;;20.10;9.57;;;12.50;99.90;;;;;;5100827;28;20487;-41
2023/03/18 07:32:07;;;;;;;14.38;8.18;;;12.60;99.90;;;;;;5108178;28;20023;-41
2023/03/18 07:34:33;;;;;;;15.73;9.55;;;12.60;99.90;;;;;;5093318;28;20024;-40
2023/03/18 07:36:59;;;;;;;16.83;9.65;;;12.70;99.90;;;;;;5091807;28;20093;-40
2023/03/18 07:39:25;;;;;;;16.98;9.02;;;12.70;99.90;;;;;;5093673;28;20081;-41
2023/03/18 07:41:50;;;;;;;25.98;9.35;;;12.80;99.90;;;;;;5111797;28;20486;-43
2023/03/18 07:44:16;;;;;;;17.42;10.00;;;12.80;99.90;;;;;;5106566;28;20024;-44
2023/03/18 07:46:42;;;;;;;16.75;9.65;;;12.80;99.90;;;;;;5093946;28;20032;-41
2023/03/18 07:49:08;;;;;;;18.02;9.43;;;12.90;99.90;;;;;;5109064;28;20087;-40
2023/03/18 07:51:34;;;;;;;16.60;8.77;;;12.80;99.90;;;;;;5113543;28;20472;-42
2023/03/18 07:53:59;;;;;;;23.63;9.27;;;12.90;99.90;;;;;;5104607;28;20028;-40
2023/03/18 07:56:26;;;;;;;19.88;9.70;;;12.90;99.90;;;;;;5098253;28;20368;-40
2023/03/18 07:58:52;;;;;;;12.70;9.07;;;12.90;99.90;;;;;;5093035;28;20031;-41
2023/03/18 08:01:18;;;;;;;20.45;9.30;;;13.00;99.90;;;;;;5093324;28;20028;-40
2023/03/18 08:03:45;;;;;;;18.50;8.93;;;13.00;99.90;;;;;;5101232;28;20024;-41
2023/03/18 08:06:12;;;;;;;9.07;6.10;;;13.10;99.90;;;;;;5103681;28;20077;-40
2023/03/18 08:08:39;;;;;;;21.35;9.25;;;13.20;99.90;;;;;;5091888;28;20024;-39
2023/03/18 08:11:04;;;;;;;18.42;8.88;;;13.20;99.90;;;;;;5100029;28;20047;-41
2023/03/18 08:13:30;;;;;;;16.42;8.75;;;13.30;99.90;;;;;;5098461;28;20032;-41
2023/03/18 08:15:57;;;;;;;15.57;9.07;;;13.30;99.90;;;;;;5092975;28;20051;-42
2023/03/18 08:18:54;;;;;;;13.98;8.40;;;13.20;99.90;;;;;;5092422;28;20086;-43
2023/03/18 08:21:20;;;;;;;16.75;9.00;;;13.30;99.90;;;;;;5099489;28;20607;-41
2023/03/18 08:23:46;;;;;;;14.38;8.52;;;13.30;99.90;;;;;;5107893;28;20107;-42
2023/03/18 08:26:12;;;;;;;16.00;8.13;;;13.30;99.90;;;;;;5092895;28;20081;-41
2023/03/18 08:28:38;;;;;;;13.93;8.75;;;13.40;99.90;;;;;;5093181;28;20111;-41
2023/03/18 08:31:04;;;;;;;18.25;8.20;;;13.50;99.90;;;;;;5103434;28;20403;-40
2023/03/18 08:33:30;;;;;;;20.20;8.85;;;13.50;99.90;;;;;;5096656;28;20028;-39
2023/03/18 08:35:56;;;;;;;12.32;7.63;;;13.60;99.90;;;;;;5096089;28;20507;-42
2023/03/18 08:38:23;;;;;;;14.88;7.72;;;13.60;99.90;;;;;;5114339;28;20055;-42
2023/03/18 08:40:50;;;;;;;12.32;6.65;;;13.60;99.90;;;;;;5117211;28;20035;-40
2023/03/18 08:43:16;;;;;;;14.00;7.78;;;13.70;99.90;;;;;;5110069;28;20035;-42
2023/03/18 08:45:42;;;;;;;12.55;7.32;;;13.60;99.90;;;;;;5110594;28;20069;-41
2023/03/18 08:48:08;;;;;;;15.75;8.05;;;13.60;99.90;;;;;;5111768;28;20101;-43
2023/03/18 08:50:35;;;;;;;17.90;7.82;;;13.70;99.90;;;;;;5096925;28;20047;-44
2023/03/18 08:53:01;;;;;;;11.23;6.88;;;13.60;99.90;;;;;;5095448;28;20028;-40
2023/03/18 08:55:33;;;;;;;12.70;7.45;;;13.70;99.90;;;;;;5097111;28;20024;-41
2023/03/18 08:57:59;;;;;;;16.25;8.02;;;13.70;99.90;;;;;;5111718;28;20036;-41
2023/03/18 09:00:25;;;;;;;19.65;8.75;;;13.70;99.90;;;;;;5097591;28;20101;-44
2023/03/18 09:02:52;;;;;;;9.90;6.45;;;13.80;99.90;;;;;;5096544;28;20023;-42
2023/03/18 09:05:18;;;;;;;15.48;7.55;;;13.80;99.90;;;;;;5109598;28;20020;-42
2023/03/18 09:07:44;;;;;;;16.20;8.30;;;14.00;99.90;;;;;;5097819;28;20387;-40
2023/03/18 09:10:13;;;;;;;20.30;7.78;;;14.10;99.90;;;;;;5096467;28;20027;-38
2023/03/18 09:12:42;;;;;;;15.35;7.25;;;14.20;99.90;;;;;;5115545;28;20043;-41
2023/03/18 09:15:09;;;;;;;12.23;7.20;;;14.30;99.90;;;;;;5110531;28;20506;-39
2023/03/18 09:17:39;;;;;;;12.15;7.65;;;14.40;99.90;;;;;;5116558;28;20023;-39
2023/03/18 09:20:12;;;;;;;16.40;7.85;;;14.50;99.90;;;;;;5099849;28;20047;-42
2023/03/18 09:22:40;;;;;;;16.85;8.57;;;14.50;99.90;;;;;;5096290;28;20499;-41
2023/03/18 09:25:07;;;;;;;13.88;7.50;;;14.60;99.90;;;;;;5095949;28;20443;-38
2023/03/18 09:27:32;;;;;;;10.27;7.57;;;14.60;99.90;;;;;;5108666;28;20024;-41
2023/03/18 09:29:58;;;;;;;13.43;7.70;;;14.70;99.90;;;;;;5110125;28;20028;-42
2023/03/18 09:32:24;;;;;;;13.50;7.97;;;14.80;99.90;;;;;;5112598;28;20066;-41
2023/03/18 09:34:50;;;;;;;13.50;8.45;;;14.80;99.90;;;;;;5104135;28;20067;-42
2023/03/18 09:37:17;;;;;;;16.15;8.77;;;15.00;99.90;;;;;;5098658;28;20177;-40
2023/03/18 09:39:43;;;;;;;21.33;8.15;;;15.10;99.90;;;;;;5119153;27;20400;-39
2023/03/18 09:42:31;;;;;;;16.27;8.05;;;15.20;99.90;;;;;;5110789;28;20042;-41
2023/03/18 09:45:01;;;;;;;15.95;7.97;;;15.30;99.90;;;;;;5110233;28;20025;-39
2023/03/18 09:47:30;;;;;;;15.43;8.10;;;15.60;99.90;;;;;;5094302;28;20375;-40
2023/03/18 09:50:06;;;;;;;16.75;9.20;;;15.80;99.90;;;;;;5105829;28;20161;-41
2023/03/18 09:52:40;;;;;;;13.88;8.15;;;15.80;99.90;;;;;;5095990;28;20032;-39
2023/03/18 09:55:41;;;;;;;19.92;9.57;;;15.80;99.90;;;;;;5094553;28;20025;-38
2023/03/18 09:58:28;;;;;;;12.65;8.40;;;15.80;99.90;;;;;;5098802;28;20035;-40
2023/03/18 10:01:06;;;;;;;13.45;8.70;;;15.70;99.90;;;;;;5110835;28;20432;-41
2023/03/18 10:03:37;;;;;;;14.43;8.50;;;15.60;99.90;;;;;;5101636;28;20028;-39
2023/03/18 10:06:15;;;;;;;18.08;7.90;;;15.60;99.90;;;;;;5098986;28;20024;-32
2023/03/18 10:08:47;;;;;;;13.65;8.00;;;15.60;99.90;;;;;;5096984;28;20042;-36
2023/03/18 10:11:22;;;;;;;13.10;7.10;;;15.60;99.90;;;;;;5096805;28;20028;-41
2023/03/18 10:13:57;;;;;;;14.57;8.25;;;15.70;99.90;;;;;;5094137;28;20020;-39
2023/03/18 10:16:29;;;;;;;10.68;7.07;;;15.70;99.90;;;;;;5112016;28;20107;-40
2023/03/18 10:18:55;;;;;;;14.32;7.32;;;15.80;99.90;;;;;;5093744;28;20028;-40
2023/03/18 10:22:17;;;;;;;14.77;7.00;;;15.70;99.90;;;;;;5094570;28;20012;-40
2023/03/18 10:25:15;;;;;;;12.05;7.45;;;15.70;99.90;;;;;;5071431;28;20127;-40
2023/03/18 10:28:00;;;;;;;10.23;5.72;;;15.60;99.90;;;;;;5105353;27;20039;-42
2023/03/18 10:30:53;;;;;;;7.22;5.43;;;15.90;99.90;;;;;;5095908;28;20064;-41
2023/03/18 10:33:43;;;;;;;7.15;5.03;;;16.30;99.90;;;;;;5100456;28;20039;-39
2023/03/18 10:36:22;;;;;;;10.93;5.43;;;16.60;99.90;;;;;;5096421;28;20074;-36
2023/03/18 10:38:52;;;;;;;8.60;5.00;;;16.90;99.90;;;;;;5094861;28;20480;-43
2023/03/18 10:41:31;;;;;;;10.32;4.95;;;17.00;99.90;;;;;;5093985;28;20044;-43
2023/03/18 10:44:03;;;;;;;6.55;4.20;;;17.10;99.90;;;;;;5111475;28;20047;-40
2023/03/18 10:46:30;;;;;;;10.05;4.88;;;17.00;99.90;;;;;;5105420;28;20035;-42
2023/03/18 10:49:05;;;;;;;10.65;4.40;;;16.80;99.90;;;;;;5102646;28;20027;-41
2023/03/18 10:51:59;;;;;;;9.40;4.38;;;16.80;99.90;;;;;;5100364;28;20140;-41
2023/03/18 10:54:39;;;;;;;9.27;4.85;;;16.80;99.90;;;;;;5106075;28;20118;-33
2023/03/18 10:57:05;;;;;;;7.10;4.82;;;16.80;99.90;;;;;;5109184;28;20042;-45
2023/03/18 10:59:32;;;;;;;12.50;5.30;;;16.90;99.90;;;;;;5109790;28;20059;-43
2023/03/18 11:02:05;;;;;;;15.38;4.70;;;16.80;99.90;;;;;;5097334;28;20032;-41
2023/03/18 11:04:41;;;;;;;11.02;5.07;;;16.80;99.90;;;;;;5107972;28;20035;-42
2023/03/18 11:07:11;;;;;;;9.07;5.32;;;16.80;99.90;;;;;;5102638;27;20346;-38
2023/03/18 11:09:38;;;;;;;6.57;4.50;;;16.80;99.90;;;;;;5098565;28;20031;-40
2023/03/18 11:12:26;;;;;;;16.13;4.35;;;16.80;99.90;;;;;;5102697;28;20114;-42
2023/03/18 11:14:52;;;;;;;13.35;5.00;;;16.80;99.90;;;;;;5098125;28;20492;-43
2023/03/18 11:17:25;;;;;;;10.40;5.50;;;16.80;99.90;;;;;;5107021;28;20480;-41
2023/03/18 11:20:20;;;;;;;9.45;5.15;;;16.70;99.90;;;;;;5098438;28;20037;-42
2023/03/18 11:22:51;;;;;;;14.93;6.90;;;16.60;99.90;;;;;;5114056;28;20024;-39
2023/03/18 11:25:22;;;;;;;10.02;5.97;;;16.40;99.90;;;;;;5114515;28;20015;-39
2023/03/18 11:28:01;;;;;;;11.35;5.57;;;16.30;99.90;;;;;;5094499;28;20039;-39
2023/03/18 11:30:29;;;;;;;8.18;4.25;;;16.40;99.90;;;;;;5097186;28;20032;-43
2023/03/18 11:32:57;;;;;;;12.45;4.32;;;16.30;99.90;;;;;;5103214;28;20020;-42
2023/03/18 11:35:43;;;;;;;8.77;5.00;;;16.40;99.90;;;;;;5096963;28;20034;-34
2023/03/18 11:38:27;;;;;;;13.82;4.68;;;16.30;99.90;;;;;;5097032;28;20051;-42
2023/03/18 11:41:21;;;;;;;12.60;4.85;;;16.30;99.90;;;;;;5097679;28;20511;-43
2023/03/18 11:43:58;;;;;;;11.70;4.18;;;16.20;99.90;;;;;;5096114;28;20079;-40
2023/03/18 11:46:30;;;;;;;8.50;3.80;;;16.20;99.90;;;;;;5099181;28;20028;-40
2023/03/18 11:48:58;;;;;;;8.18;3.90;;;16.10;99.90;;;;;;5102928;28;20143;-43
2023/03/18 11:51:41;;;;;;;8.85;3.90;;;16.10;99.90;;;;;;5109743;28;20024;-39
2023/03/18 11:54:16;;;;;;;6.28;4.03;;;16.30;99.90;;;;;;5110856;28;20077;-41
2023/03/18 11:57:07;;;;;;;6.03;3.75;;;16.50;99.90;;;;;;5104111;28;20035;-43
2023/03/18 11:59:42;;;;;;;8.65;3.92;;;16.70;99.90;;;;;;5107756;28;20459;-42
2023/03/18 12:02:26;;;;;;;6.72;3.35;;;16.80;99.90;;;;;;5093254;28;20476;-41
2023/03/18 12:05:21;;;;;;;9.80;3.75;;;16.90;99.90;;;;;;5109149;28;20059;-38
2023/03/18 12:08:02;;;;;;;3.88;3.30;;;16.90;99.90;;;;;;5092044;28;20506;-40
2023/03/18 12:10:40;;;;;;;5.25;3.15;;;17.00;99.90;;;;;;5096619;28;20411;-44
2023/03/18 12:13:08;;;;;;;;;;;17.10;99.90;;;;;;5107528;28;20058;-44
2023/03/18 12:15:45;;;;;;;11.95;3.67;;;17.20;99.90;;;;;;5101341;28;19908;-41
2023/03/18 12:18:47;;;;;;;12.57;4.15;;;17.20;99.90;;;;;;5092912;28;20035;-40
2023/03/18 12:21:39;;;;;;;7.22;3.15;;;17.20;99.90;;;;;;5092771;28;20038;-40
2023/03/18 12:24:23;;;;;;;6.40;2.78;;;17.10;99.90;;;;;;5093238;28;20032;-41
2023/03/18 12:26:48;;;;;;;7.80;3.63;;;17.00;99.90;;;;;;5093216;28;20036;-44
2023/03/18 12:29:23;;;;;;;6.93;4.03;;;16.80;99.90;;;;;;5110466;28;20024;-43
2023/03/18 12:32:05;;;;;;;7.60;3.08;;;16.50;99.90;;;;;;5103522;28;20039;-41
2023/03/18 12:34:40;;;;;;;6.95;3.50;;;16.20;99.90;;;;;;5096489;28;20024;-40
2023/03/18 12:37:24;;;;;;;9.77;3.75;;;16.10;99.90;;;;;;5093441;28;20060;-41
2023/03/18 12:39:55;;;;;;;5.50;3.40;;;16.00;99.90;;;;;;5093095;28;20038;-45
2023/03/18 12:43:08;;;;;;;9.70;2.75;;;15.90;99.90;;;;;;5092447;28;20496;-40
2023/03/18 12:45:39;;;;;;;6.55;2.80;;;15.90;99.90;;;;;;5059125;28;20163;-42
2023/03/18 12:48:15;;;;;;;5.55;3.28;;;15.90;99.90;;;;;;5062145;28;20029;-40
2023/03/18 12:50:46;;;;;;;5.85;2.88;;;16.00;99.90;;;;;;5076427;28;20050;-34